Mc Carley, Mississippi
Current Conditions -  °F | °C
As of 12:53 PM on Sunday 21 Dec 2014 (Local Time) from KGWO Reporting Station
Clear Clear  
Wind Chill: 58°   Ceiling: Unl
Heat Index: 58°   Visibility: 10mi
Dew Point: 40°   Wind: 7mph
Humidity: 51%   Direction: 110°ESE
Pressure: 30.07"   Gusts: NA
Location:  33.5217°N, 89.8329°W
Report Text: KGWO 211853Z AUTO 11006KT 10SM CLR 14/04 A3007 RMK AO2 SLP181 T01440044
Loading
Personal Weather Stations






























Interactive Weather Map New forecast layout! Learn more

10-Day Weather Forecast

Advertisements
Track Severe Weather on mobile